sensor_id;sensor_type;location;lat;lon;timestamp;pressure;altitude;pressure_sealevel;temperature;humidity
25238;BME280;13185;50.872;5.306;2023-04-28T00:01:59;100882.59;;;10.64;74.99
25238;BME280;13185;50.872;5.306;2023-04-28T00:04:24;100894.94;;;10.67;75.04
25238;BME280;13185;50.872;5.306;2023-04-28T00:06:50;100893.97;;;10.68;75.04
25238;BME280;13185;50.872;5.306;2023-04-28T00:09:15;100902.00;;;10.68;74.82
25238;BME280;13185;50.872;5.306;2023-04-28T00:11:43;100897.59;;;10.67;74.62
25238;BME280;13185;50.872;5.306;2023-04-28T00:14:09;100899.31;;;10.68;75.03
25238;BME280;13185;50.872;5.306;2023-04-28T00:16:34;100900.94;;;10.70;75.56
25238;BME280;13185;50.872;5.306;2023-04-28T00:19:00;100892.91;;;10.70;75.49
25238;BME280;13185;50.872;5.306;2023-04-28T00:21:26;100897.19;;;10.73;76.08
25238;BME280;13185;50.872;5.306;2023-04-28T00:23:53;100892.72;;;10.74;77.01
25238;BME280;13185;50.872;5.306;2023-04-28T00:26:18;100899.69;;;10.76;78.14
25238;BME280;13185;50.872;5.306;2023-04-28T00:28:44;100896.91;;;10.78;78.42
25238;BME280;13185;50.872;5.306;2023-04-28T00:31:11;100884.56;;;10.75;79.04
25238;BME280;13185;50.872;5.306;2023-04-28T00:33:38;100893.66;;;10.73;79.71
25238;BME280;13185;50.872;5.306;2023-04-28T00:36:03;100887.44;;;10.72;81.40
25238;BME280;13185;50.872;5.306;2023-04-28T00:38:30;100876.81;;;10.70;81.43
25238;BME280;13185;50.872;5.306;2023-04-28T00:40:55;100878.63;;;10.70;82.19
25238;BME280;13185;50.872;5.306;2023-04-28T00:43:21;100870.56;;;10.70;83.05
25238;BME280;13185;50.872;5.306;2023-04-28T00:45:48;100855.34;;;10.70;85.34
25238;BME280;13185;50.872;5.306;2023-04-28T00:48:14;100858.53;;;10.63;86.34
25238;BME280;13185;50.872;5.306;2023-04-28T00:50:41;100857.88;;;10.59;86.48
25238;BME280;13185;50.872;5.306;2023-04-28T00:53:06;100838.34;;;10.57;87.67
25238;BME280;13185;50.872;5.306;2023-04-28T00:55:34;100822.34;;;10.56;87.91
25238;BME280;13185;50.872;5.306;2023-04-28T00:58:01;100812.75;;;10.52;89.57
25238;BME280;13185;50.872;5.306;2023-04-28T01:00:27;100810.19;;;10.50;89.66
25238;BME280;13185;50.872;5.306;2023-04-28T01:02:52;100798.91;;;10.45;90.13
25238;BME280;13185;50.872;5.306;2023-04-28T01:05:20;100803.06;;;10.36;91.59
25238;BME280;13185;50.872;5.306;2023-04-28T01:07:47;100799.44;;;10.23;91.67
25238;BME280;13185;50.872;5.306;2023-04-28T01:10:13;100789.84;;;10.19;91.62
25238;BME280;13185;50.872;5.306;2023-04-28T01:12:38;100787.47;;;10.15;92.37
25238;BME280;13185;50.872;5.306;2023-04-28T01:15:05;100796.75;;;10.09;92.10
25238;BME280;13185;50.872;5.306;2023-04-28T01:17:31;100797.81;;;10.06;92.21
25238;BME280;13185;50.872;5.306;2023-04-28T01:19:58;100818.47;;;10.04;92.45
25238;BME280;13185;50.872;5.306;2023-04-28T01:22:23;100809.69;;;10.02;92.18
25238;BME280;13185;50.872;5.306;2023-04-28T01:24:49;100814.94;;;10.04;92.63
25238;BME280;13185;50.872;5.306;2023-04-28T01:27:15;100807.66;;;10.06;92.96
25238;BME280;13185;50.872;5.306;2023-04-28T01:29:41;100815.50;;;10.09;93.09
25238;BME280;13185;50.872;5.306;2023-04-28T01:32:06;100817.31;;;10.08;92.85
25238;BME280;13185;50.872;5.306;2023-04-28T01:34:33;100824.22;;;10.12;93.04
25238;BME280;13185;50.872;5.306;2023-04-28T01:36:58;100813.41;;;10.14;93.24
25238;BME280;13185;50.872;5.306;2023-04-28T01:39:24;100814.16;;;10.16;93.52
25238;BME280;13185;50.872;5.306;2023-04-28T01:41:49;100819.31;;;10.19;93.11
25238;BME280;13185;50.872;5.306;2023-04-28T01:44:15;100811.13;;;10.22;92.99
25238;BME280;13185;50.872;5.306;2023-04-28T01:46:40;100793.13;;;10.24;93.58
25238;BME280;13185;50.872;5.306;2023-04-28T01:49:06;100787.88;;;10.23;93.70
25238;BME280;13185;50.872;5.306;2023-04-28T01:51:32;100788.72;;;10.23;94.14
25238;BME280;13185;50.872;5.306;2023-04-28T01:53:59;100803.84;;;10.24;94.46
25238;BME280;13185;50.872;5.306;2023-04-28T01:56:24;100803.00;;;10.24;94.67
25238;BME280;13185;50.872;5.306;2023-04-28T01:58:53;100806.66;;;10.21;95.28
25238;BME280;13185;50.872;5.306;2023-04-28T02:01:19;100805.25;;;10.16;94.98
25238;BME280;13185;50.872;5.306;2023-04-28T02:03:44;100810.72;;;10.14;94.88
25238;BME280;13185;50.872;5.306;2023-04-28T02:06:10;100821.53;;;10.12;94.98
25238;BME280;13185;50.872;5.306;2023-04-28T02:08:36;100830.34;;;10.15;95.79
25238;BME280;13185;50.872;5.306;2023-04-28T02:11:01;100840.19;;;10.14;96.56
25238;BME280;13185;50.872;5.306;2023-04-28T02:13:28;100843.75;;;10.15;96.55
25238;BME280;13185;50.872;5.306;2023-04-28T02:15:54;100841.16;;;10.13;96.74
25238;BME280;13185;50.872;5.306;2023-04-28T02:18:20;100833.13;;;10.13;96.40
25238;BME280;13185;50.872;5.306;2023-04-28T02:20:45;100833.13;;;10.13;96.30
25238;BME280;13185;50.872;5.306;2023-04-28T02:23:11;100833.97;;;10.13;96.79
25238;BME280;13185;50.872;5.306;2023-04-28T02:25:36;100835.91;;;10.11;96.79
25238;BME280;13185;50.872;5.306;2023-04-28T02:28:02;100826.22;;;10.09;97.33
25238;BME280;13185;50.872;5.306;2023-04-28T02:30:28;100804.78;;;10.09;98.27
25238;BME280;13185;50.872;5.306;2023-04-28T02:32:54;100802.88;;;10.11;98.49
25238;BME280;13185;50.872;5.306;2023-04-28T02:35:20;100787.75;;;10.10;98.76
25238;BME280;13185;50.872;5.306;2023-04-28T02:37:45;100776.47;;;10.05;100.00
25238;BME280;13185;50.872;5.306;2023-04-28T02:40:11;100781.19;;;10.01;100.00
25238;BME280;13185;50.872;5.306;2023-04-28T02:42:37;100785.69;;;10.01;100.00
25238;BME280;13185;50.872;5.306;2023-04-28T02:45:03;100763.28;;;10.02;100.00
25238;BME280;13185;50.872;5.306;2023-04-28T02:47:28;100746.34;;;10.01;100.00
25238;BME280;13185;50.872;5.306;2023-04-28T02:49:54;100725.19;;;9.97;100.00
25238;BME280;13185;50.872;5.306;2023-04-28T02:52:20;100714.56;;;9.95;100.00
25238;BME280;13185;50.872;5.306;2023-04-28T02:54:45;100695.81;;;9.95;100.00
25238;BME280;13185;50.872;5.306;2023-04-28T02:57:13;100661.22;;;9.92;100.00
25238;BME280;13185;50.872;5.306;2023-04-28T02:59:39;100619.59;;;9.87;100.00
25238;BME280;13185;50.872;5.306;2023-04-28T03:02:05;100601.28;;;9.80;100.00
25238;BME280;13185;50.872;5.306;2023-04-28T03:04:30;100627.56;;;9.74;100.00
25238;BME280;13185;50.872;5.306;2023-04-28T03:06:56;100669.28;;;9.64;100.00
25238;BME280;13185;50.872;5.306;2023-04-28T03:09:22;100697.88;;;9.63;100.00
25238;BME280;13185;50.872;5.306;2023-04-28T03:11:47;100696.94;;;9.64;100.00
25238;BME280;13185;50.872;5.306;2023-04-28T03:14:13;100690.34;;;9.70;100.00
25238;BME280;13185;50.872;5.306;2023-04-28T03:16:38;100677.59;;;9.73;100.00
25238;BME280;13185;50.872;5.306;2023-04-28T03:19:04;100686.38;;;9.75;100.00
25238;BME280;13185;50.872;5.306;2023-04-28T03:21:30;100690.41;;;9.82;100.00
25238;BME280;13185;50.872;5.306;2023-04-28T03:23:56;100691.25;;;9.83;100.00
25238;BME280;13185;50.872;5.306;2023-04-28T03:26:22;100693.09;;;9.82;100.00
25238;BME280;13185;50.872;5.306;2023-04-28T03:28:50;100702.84;;;9.83;100.00
25238;BME280;13185;50.872;5.306;2023-04-28T03:31:16;100708.19;;;9.83;100.00
25238;BME280;13185;50.872;5.306;2023-04-28T03:33:42;100699.19;;;9.84;100.00
25238;BME280;13185;50.872;5.306;2023-04-28T03:36:10;100700.81;;;9.87;100.00
25238;BME280;13185;50.872;5.306;2023-04-28T03:38:36;100698.81;;;9.91;100.00
25238;BME280;13185;50.872;5.306;2023-04-28T03:41:01;100698.59;;;9.94;100.00
25238;BME280;13185;50.872;5.306;2023-04-28T03:43:47;100696.69;;;9.96;100.00
25238;BME280;13185;50.872;5.306;2023-04-28T03:46:22;100701.84;;;9.99;100.00
25238;BME280;13185;50.872;5.306;2023-04-28T03:48:48;100699.25;;;9.97;100.00
25238;BME280;13185;50.872;5.306;2023-04-28T03:51:15;100696.69;;;9.96;100.00
25238;BME280;13185;50.872;5.306;2023-04-28T03:53:40;100699.25;;;9.97;100.00
25238;BME280;13185;50.872;5.306;2023-04-28T03:56:06;100697.25;;;10.01;100.00
25238;BME280;13185;50.872;5.306;2023-04-28T03:58:32;100695.50;;;10.00;100.00
25238;BME280;13185;50.872;5.306;2023-04-28T04:00:57;100690.09;;;10.01;100.00
25238;BME280;13185;50.872;5.306;2023-04-28T04:03:25;100685.59;;;10.02;100.00
25238;BME280;13185;50.872;5.306;2023-04-28T04:05:51;100692.66;;;10.03;100.00
25238;BME280;13185;50.872;5.306;2023-04-28T04:08:18;100682.91;;;10.02;100.00
25238;BME280;13185;50.872;5.306;2023-04-28T04:10:44;100687.41;;;10.01;100.00
25238;BME280;13185;50.872;5.306;2023-04-28T04:13:10;100676.75;;;10.00;100.00
25238;BME280;13185;50.872;5.306;2023-04-28T04:15:35;100676.59;;;10.03;100.00
25238;BME280;13185;50.872;5.306;2023-04-28T04:18:02;100671.22;;;10.03;100.00
25238;BME280;13185;50.872;5.306;2023-04-28T04:20:39;100680.00;;;10.05;100.00
25238;BME280;13185;50.872;5.306;2023-04-28T04:23:05;100682.69;;;10.05;100.00
25238;BME280;13185;50.872;5.306;2023-04-28T04:25:31;100688.06;;;10.05;100.00
25238;BME280;13185;50.872;5.306;2023-04-28T04:27:58;100694.16;;;10.07;100.00
25238;BME280;13185;50.872;5.306;2023-04-28T04:30:24;100677.00;;;10.09;100.00
25238;BME280;13185;50.872;5.306;2023-04-28T04:32:49;100671.59;;;10.11;100.00
25238;BME280;13185;50.872;5.306;2023-04-28T04:35:15;100668.81;;;10.12;100.00
25238;BME280;13185;50.872;5.306;2023-04-28T04:37:41;100663.44;;;10.12;100.00
25238;BME280;13185;50.872;5.306;2023-04-28T04:40:07;100675.00;;;10.13;100.00
25238;BME280;13185;50.872;5.306;2023-04-28T04:42:39;100664.94;;;10.17;100.00
25238;BME280;13185;50.872;5.306;2023-04-28T04:45:07;100657.75;;;10.17;100.00
25238;BME280;13185;50.872;5.306;2023-04-28T04:47:33;100650.38;;;10.21;100.00
25238;BME280;13185;50.872;5.306;2023-04-28T04:49:59;100644.00;;;10.23;100.00
25238;BME280;13185;50.872;5.306;2023-04-28T04:52:24;100650.22;;;10.24;100.00
25238;BME280;13185;50.872;5.306;2023-04-28T04:54:50;100668.03;;;10.25;100.00
25238;BME280;13185;50.872;5.306;2023-04-28T04:57:16;100684.97;;;10.25;100.00
25238;BME280;13185;50.872;5.306;2023-04-28T05:00:05;100684.84;;;10.27;100.00
25238;BME280;13185;50.872;5.306;2023-04-28T05:02:31;100687.31;;;10.30;100.00
25238;BME280;13185;50.872;5.306;2023-04-28T05:04:58;100675.44;;;10.34;100.00
25238;BME280;13185;50.872;5.306;2023-04-28T05:07:25;100687.69;;;10.38;100.00
25238;BME280;13185;50.872;5.306;2023-04-28T05:09:51;100680.28;;;10.41;100.00
25238;BME280;13185;50.872;5.306;2023-04-28T05:12:17;100668.50;;;10.44;100.00
25238;BME280;13185;50.872;5.306;2023-04-28T05:14:42;100671.84;;;10.48;100.00
25238;BME280;13185;50.872;5.306;2023-04-28T05:17:08;100673.66;;;10.47;100.00
25238;BME280;13185;50.872;5.306;2023-04-28T05:19:36;100671.72;;;10.49;100.00
25238;BME280;13185;50.872;5.306;2023-04-28T05:22:02;100676.97;;;10.51;100.00
25238;BME280;13185;50.872;5.306;2023-04-28T05:24:28;100670.47;;;10.55;100.00
25238;BME280;13185;50.872;5.306;2023-04-28T05:26:57;100677.34;;;10.59;100.00
25238;BME280;13185;50.872;5.306;2023-04-28T05:29:22;100679.78;;;10.62;100.00
25238;BME280;13185;50.872;5.306;2023-04-28T05:31:48;100689.38;;;10.66;100.00
25238;BME280;13185;50.872;5.306;2023-04-28T05:34:14;100690.97;;;10.68;100.00
25238;BME280;13185;50.872;5.306;2023-04-28T05:36:40;100685.41;;;10.72;100.00
25238;BME280;13185;50.872;5.306;2023-04-28T05:39:08;100680.81;;;10.74;100.00
25238;BME280;13185;50.872;5.306;2023-04-28T05:41:34;100678.88;;;10.76;100.00
25238;BME280;13185;50.872;5.306;2023-04-28T05:44:01;100679.84;;;10.75;100.00
25238;BME280;13185;50.872;5.306;2023-04-28T05:46:27;100675.00;;;10.80;100.00
25238;BME280;13185;50.872;5.306;2023-04-28T05:48:53;100664.16;;;10.81;100.00
25238;BME280;13185;50.872;5.306;2023-04-28T05:51:19;100657.53;;;10.87;100.00
25238;BME280;13185;50.872;5.306;2023-04-28T05:53:46;100649.25;;;10.90;100.00
25238;BME280;13185;50.872;5.306;2023-04-28T05:56:14;100650.13;;;10.90;100.00
25238;BME280;13185;50.872;5.306;2023-04-28T05:58:41;100649.25;;;10.90;100.00
25238;BME280;13185;50.872;5.306;2023-04-28T06:01:09;100653.66;;;10.91;100.00
25238;BME280;13185;50.872;5.306;2023-04-28T06:03:37;100672.34;;;10.92;100.00
25238;BME280;13185;50.872;5.306;2023-04-28T06:06:06;100682.94;;;10.94;100.00
25238;BME280;13185;50.872;5.306;2023-04-28T06:08:32;100697.91;;;10.98;100.00
25238;BME280;13185;50.872;5.306;2023-04-28T06:10:58;100688.53;;;11.04;100.00
25238;BME280;13185;50.872;5.306;2023-04-28T06:13:24;100679.44;;;11.06;100.00
25238;BME280;13185;50.872;5.306;2023-04-28T06:15:49;100681.69;;;11.12;100.00
25238;BME280;13185;50.872;5.306;2023-04-28T06:18:15;100681.38;;;11.17;100.00
25238;BME280;13185;50.872;5.306;2023-04-28T06:20:41;100680.31;;;11.19;100.00
25238;BME280;13185;50.872;5.306;2023-04-28T06:23:07;100675.78;;;11.20;100.00
25238;BME280;13185;50.872;5.306;2023-04-28T06:25:35;100676.13;;;11.28;100.00
25238;BME280;13185;50.872;5.306;2023-04-28T06:28:01;100665.91;;;11.33;100.00
25238;BME280;13185;50.872;5.306;2023-04-28T06:30:27;100675.97;;;11.42;100.00
25238;BME280;13185;50.872;5.306;2023-04-28T06:32:53;100679.97;;;11.49;100.00
25238;BME280;13185;50.872;5.306;2023-04-28T06:35:20;100674.34;;;11.52;100.00
25238;BME280;13185;50.872;5.306;2023-04-28T06:37:46;100672.97;;;11.60;100.00
25238;BME280;13185;50.872;5.306;2023-04-28T06:40:13;100668.53;;;11.71;100.00
25238;BME280;13185;50.872;5.306;2023-04-28T06:42:44;100677.31;;;11.73;100.00
25238;BME280;13185;50.872;5.306;2023-04-28T06:45:16;100679.78;;;11.76;100.00
25238;BME280;13185;50.872;5.306;2023-04-28T06:47:41;100668.94;;;11.78;100.00
25238;BME280;13185;50.872;5.306;2023-04-28T06:50:08;100665.22;;;11.80;100.00
25238;BME280;13185;50.872;5.306;2023-04-28T06:52:34;100674.00;;;11.82;100.00
25238;BME280;13185;50.872;5.306;2023-04-28T06:55:00;100689.78;;;11.87;100.00
25238;BME280;13185;50.872;5.306;2023-04-28T06:57:25;100674.75;;;11.84;100.00
25238;BME280;13185;50.872;5.306;2023-04-28T06:59:53;100675.84;;;11.82;100.00
25238;BME280;13185;50.872;5.306;2023-04-28T07:02:18;100675.97;;;11.80;100.00
25238;BME280;13185;50.872;5.306;2023-04-28T07:04:44;100675.72;;;11.83;100.00
25238;BME280;13185;50.872;5.306;2023-04-28T07:07:10;100682.81;;;11.84;100.00
25238;BME280;13185;50.872;5.306;2023-04-28T07:09:35;100684.41;;;11.87;100.00
25238;BME280;13185;50.872;5.306;2023-04-28T07:12:02;100681.72;;;11.87;100.00
25238;BME280;13185;50.872;5.306;2023-04-28T07:14:28;100694.09;;;11.90;100.00
25238;BME280;13185;50.872;5.306;2023-04-28T07:16:54;100684.94;;;11.92;100.00
25238;BME280;13185;50.872;5.306;2023-04-28T07:19:19;100694.50;;;11.96;100.00
25238;BME280;13185;50.872;5.306;2023-04-28T07:21:45;100695.22;;;11.98;100.00
25238;BME280;13185;50.872;5.306;2023-04-28T07:24:11;100692.22;;;12.03;100.00
25238;BME280;13185;50.872;5.306;2023-04-28T07:26:36;100689.19;;;12.07;100.00
25238;BME280;13185;50.872;5.306;2023-04-28T07:29:02;100691.56;;;12.12;100.00
25238;BME280;13185;50.872;5.306;2023-04-28T07:31:27;100696.38;;;12.20;100.00
25238;BME280;13185;50.872;5.306;2023-04-28T07:33:53;100695.91;;;12.26;100.00
25238;BME280;13185;50.872;5.306;2023-04-28T07:36:19;100695.56;;;12.30;100.00
25238;BME280;13185;50.872;5.306;2023-04-28T07:38:45;100691.31;;;12.39;100.00
25238;BME280;13185;50.872;5.306;2023-04-28T07:41:11;100690.75;;;12.47;100.00
25238;BME280;13185;50.872;5.306;2023-04-28T07:43:36;100689.19;;;12.55;100.00
25238;BME280;13185;50.872;5.306;2023-04-28T07:46:02;100696.69;;;12.63;100.00
25238;BME280;13185;50.872;5.306;2023-04-28T07:48:28;100683.50;;;12.71;100.00
25238;BME280;13185;50.872;5.306;2023-04-28T07:50:53;100690.53;;;12.85;100.00
25238;BME280;13185;50.872;5.306;2023-04-28T07:53:19;100684.31;;;12.95;100.00
25238;BME280;13185;50.872;5.306;2023-04-28T07:55:44;100689.00;;;13.05;100.00
25238;BME280;13185;50.872;5.306;2023-04-28T07:58:11;100684.72;;;13.13;100.00
25238;BME280;13185;50.872;5.306;2023-04-28T08:00:37;100687.69;;;13.21;100.00
25238;BME280;13185;50.872;5.306;2023-04-28T08:03:02;100681.56;;;13.31;100.00
25238;BME280;13185;50.872;5.306;2023-04-28T08:05:28;100687.69;;;13.44;100.00
25238;BME280;13185;50.872;5.306;2023-04-28T08:07:54;100688.69;;;13.54;100.00
25238;BME280;13185;50.872;5.306;2023-04-28T08:10:20;100694.44;;;13.61;100.00
25238;BME280;13185;50.872;5.306;2023-04-28T08:12:46;100692.34;;;13.64;100.00
25238;BME280;13185;50.872;5.306;2023-04-28T08:15:11;100689.06;;;13.72;100.00
25238;BME280;13185;50.872;5.306;2023-04-28T08:17:37;100697.75;;;13.75;100.00
25238;BME280;13185;50.872;5.306;2023-04-28T08:20:03;100688.44;;;13.79;100.00
25238;BME280;13185;50.872;5.306;2023-04-28T08:22:31;100695.91;;;13.87;100.00
25238;BME280;13185;50.872;5.306;2023-04-28T08:24:56;100695.66;;;13.90;100.00
25238;BME280;13185;50.872;5.306;2023-04-28T08:27:22;100693.22;;;13.98;100.00
25238;BME280;13185;50.872;5.306;2023-04-28T08:29:49;100696.09;;;14.06;100.00
25238;BME280;13185;50.872;5.306;2023-04-28T08:32:15;100708.25;;;14.12;100.00
25238;BME280;13185;50.872;5.306;2023-04-28T08:34:40;100701.00;;;14.12;100.00
25238;BME280;13185;50.872;5.306;2023-04-28T08:37:06;100708.84;;;14.15;100.00
25238;BME280;13185;50.872;5.306;2023-04-28T08:39:31;100707.00;;;14.16;100.00
25238;BME280;13185;50.872;5.306;2023-04-28T08:41:58;100712.41;;;14.16;100.00
25238;BME280;13185;50.872;5.306;2023-04-28T08:44:24;100710.56;;;14.16;100.00
25238;BME280;13185;50.872;5.306;2023-04-28T08:46:53;100705.53;;;14.23;100.00
25238;BME280;13185;50.872;5.306;2023-04-28T08:49:22;100697.53;;;14.33;100.00
25238;BME280;13185;50.872;5.306;2023-04-28T08:51:58;100694.47;;;14.49;100.00
25238;BME280;13185;50.872;5.306;2023-04-28T08:54:31;100698.94;;;14.59;100.00
25238;BME280;13185;50.872;5.306;2023-04-28T08:56:59;100697.97;;;14.60;100.00
25238;BME280;13185;50.872;5.306;2023-04-28T08:59:25;100690.06;;;14.68;100.00
25238;BME280;13185;50.872;5.306;2023-04-28T09:01:51;100697.72;;;14.84;100.00
25238;BME280;13185;50.872;5.306;2023-04-28T09:04:16;100694.44;;;15.01;100.00
25238;BME280;13185;50.872;5.306;2023-04-28T09:06:42;100685.00;;;15.17;100.00
25238;BME280;13185;50.872;5.306;2023-04-28T09:11:57;100693.56;;;15.43;100.00
25238;BME280;13185;50.872;5.306;2023-04-28T09:14:24;100699.53;;;15.46;100.00
25238;BME280;13185;50.872;5.306;2023-04-28T09:16:51;100695.97;;;15.46;100.00
25238;BME280;13185;50.872;5.306;2023-04-28T09:19:17;100699.97;;;15.51;100.00
25238;BME280;13185;50.872;5.306;2023-04-28T09:21:55;100706.84;;;15.55;100.00
25238;BME280;13185;50.872;5.306;2023-04-28T09:27:03;100697.25;;;15.51;100.00
25238;BME280;13185;50.872;5.306;2023-04-28T09:29:30;100700.81;;;15.52;100.00
25238;BME280;13185;50.872;5.306;2023-04-28T09:32:16;100698.13;;;15.52;100.00
25238;BME280;13185;50.872;5.306;2023-04-28T09:37:23;100707.06;;;15.64;100.00
25238;BME280;13185;50.872;5.306;2023-04-28T09:39:50;100702.25;;;15.77;100.00
25238;BME280;13185;50.872;5.306;2023-04-28T09:42:36;100698.88;;;15.94;100.00
25238;BME280;13185;50.872;5.306;2023-04-28T09:45:06;100694.38;;;16.14;100.00
25238;BME280;13185;50.872;5.306;2023-04-28T09:47:35;100708.69;;;16.26;100.00
25238;BME280;13185;50.872;5.306;2023-04-28T09:50:03;100706.25;;;16.32;100.00
25238;BME280;13185;50.872;5.306;2023-04-28T09:52:29;100708.41;;;16.38;100.00
25238;BME280;13185;50.872;5.306;2023-04-28T09:54:55;100698.44;;;16.49;100.00
25238;BME280;13185;50.872;5.306;2023-04-28T09:57:22;100688.34;;;16.60;100.00
25238;BME280;13185;50.872;5.306;2023-04-28T09:59:50;100686.66;;;16.79;100.00
25238;BME280;13185;50.872;5.306;2023-04-28T10:02:17;100692.06;;;16.88;100.00
25238;BME280;13185;50.872;5.306;2023-04-28T10:04:44;100688.19;;;17.00;100.00
25238;BME280;13185;50.872;5.306;2023-04-28T10:07:14;100680.75;;;17.12;100.00
25238;BME280;13185;50.872;5.306;2023-04-28T10:09:41;100679.13;;;17.29;100.00
25238;BME280;13185;50.872;5.306;2023-04-28T10:12:15;100674.97;;;17.44;100.00
25238;BME280;13185;50.872;5.306;2023-04-28T10:14:41;100682.91;;;17.55;100.00
25238;BME280;13185;50.872;5.306;2023-04-28T10:17:07;100685.25;;;17.41;96.90
25238;BME280;13185;50.872;5.306;2023-04-28T10:19:33;100684.31;;;17.22;96.47
25238;BME280;13185;50.872;5.306;2023-04-28T10:27:47;100685.59;;;17.09;97.29
25238;BME280;13185;50.872;5.306;2023-04-28T10:30:23;100673.88;;;17.18;96.33
25238;BME280;13185;50.872;5.306;2023-04-28T10:43:08;100679.84;;;17.68;93.47
25238;BME280;13185;50.872;5.306;2023-04-28T10:56:20;100668.91;;;17.97;90.13
25238;BME280;13185;50.872;5.306;2023-04-28T10:58:46;100668.00;;;18.06;90.32
25238;BME280;13185;50.872;5.306;2023-04-28T11:03:57;100673.81;;;18.11;87.31
25238;BME280;13185;50.872;5.306;2023-04-28T11:06:31;100670.28;;;18.01;85.86
25238;BME280;13185;50.872;5.306;2023-04-28T11:16:57;100663.03;;;18.20;86.52
25238;BME280;13185;50.872;5.306;2023-04-28T11:19:40;100654.69;;;18.31;85.46
25238;BME280;13185;50.872;5.306;2023-04-28T11:22:20;100655.88;;;18.46;83.62
25238;BME280;13185;50.872;5.306;2023-04-28T11:24:58;100653.13;;;18.64;84.52
25238;BME280;13185;50.872;5.306;2023-04-28T11:27:25;100665.00;;;18.63;81.65
25238;BME280;13185;50.872;5.306;2023-04-28T11:29:51;100659.81;;;18.52;80.96
25238;BME280;13185;50.872;5.306;2023-04-28T11:32:34;100654.00;;;18.46;81.19
25238;BME280;13185;50.872;5.306;2023-04-28T11:34:59;100653.53;;;18.51;81.93
25238;BME280;13185;50.872;5.306;2023-04-28T11:37:25;100650.63;;;18.53;80.95
25238;BME280;13185;50.872;5.306;2023-04-28T11:39:51;100658.34;;;18.57;80.76
25238;BME280;13185;50.872;5.306;2023-04-28T11:42:17;100660.00;;;18.68;80.89
25238;BME280;13185;50.872;5.306;2023-04-28T11:44:52;100655.63;;;18.75;81.23
25238;BME280;13185;50.872;5.306;2023-04-28T11:47:32;100662.72;;;18.68;80.10
25238;BME280;13185;50.872;5.306;2023-04-28T11:49:58;100662.91;;;18.74;81.00
25238;BME280;13185;50.872;5.306;2023-04-28T11:52:24;100675.03;;;18.80;80.06
25238;BME280;13185;50.872;5.306;2023-04-28T11:54:58;100656.19;;;18.79;79.85
25238;BME280;13185;50.872;5.306;2023-04-28T11:57:26;100664.53;;;18.85;80.37
25238;BME280;13185;50.872;5.306;2023-04-28T11:59:52;100663.78;;;18.75;79.50
25238;BME280;13185;50.872;5.306;2023-04-28T12:02:27;100669.28;;;18.83;80.40
25238;BME280;13185;50.872;5.306;2023-04-28T12:04:55;100659.75;;;19.05;80.61
25238;BME280;13185;50.872;5.306;2023-04-28T12:07:21;100659.88;;;19.21;79.54
25238;BME280;13185;50.872;5.306;2023-04-28T12:10:08;100655.25;;;19.40;80.76
25238;BME280;13185;50.872;5.306;2023-04-28T12:12:33;100649.38;;;19.52;79.42
25238;BME280;13185;50.872;5.306;2023-04-28T12:15:03;100656.88;;;19.58;78.88
25238;BME280;13185;50.872;5.306;2023-04-28T12:17:32;100666.94;;;19.32;77.45
25238;BME280;13185;50.872;5.306;2023-04-28T12:20:00;100664.41;;;19.13;78.12
25238;BME280;13185;50.872;5.306;2023-04-28T12:22:26;100668.78;;;19.06;78.22
25238;BME280;13185;50.872;5.306;2023-04-28T12:25:05;100662.31;;;19.07;78.76
25238;BME280;13185;50.872;5.306;2023-04-28T12:27:32;100679.13;;;19.02;78.20
25238;BME280;13185;50.872;5.306;2023-04-28T12:29:58;100673.31;;;18.97;77.33
25238;BME280;13185;50.872;5.306;2023-04-28T12:32:50;100678.34;;;19.10;77.85
25238;BME280;13185;50.872;5.306;2023-04-28T12:35:16;100680.19;;;19.09;78.48
25238;BME280;13185;50.872;5.306;2023-04-28T12:37:42;100672.25;;;19.16;78.72
25238;BME280;13185;50.872;5.306;2023-04-28T12:40:08;100677.28;;;19.28;78.19
25238;BME280;13185;50.872;5.306;2023-04-28T12:42:35;100682.28;;;19.41;77.44
25238;BME280;13185;50.872;5.306;2023-04-28T12:45:00;100683.63;;;19.63;77.07
25238;BME280;13185;50.872;5.306;2023-04-28T12:47:26;100687.63;;;19.85;75.13
25238;BME280;13185;50.872;5.306;2023-04-28T12:49:52;100690.16;;;19.78;72.88
25238;BME280;13185;50.872;5.306;2023-04-28T12:52:20;100686.22;;;19.73;72.68
25238;BME280;13185;50.872;5.306;2023-04-28T12:54:47;100691.63;;;19.65;72.64
25238;BME280;13185;50.872;5.306;2023-04-28T12:57:16;100701.38;;;19.49;73.00
25238;BME280;13185;50.872;5.306;2023-04-28T12:59:43;100698.94;;;19.46;73.63
25238;BME280;13185;50.872;5.306;2023-04-28T13:02:09;100710.66;;;19.39;74.78
25238;BME280;13185;50.872;5.306;2023-04-28T13:04:34;100717.34;;;19.26;74.74
25238;BME280;13185;50.872;5.306;2023-04-28T13:07:00;100720.81;;;19.37;74.50
25238;BME280;13185;50.872;5.306;2023-04-28T13:09:26;100721.38;;;19.66;73.19
25238;BME280;13185;50.872;5.306;2023-04-28T13:11:52;100718.25;;;19.87;73.15
25238;BME280;13185;50.872;5.306;2023-04-28T13:14:20;100717.56;;;19.85;72.11
25238;BME280;13185;50.872;5.306;2023-04-28T13:16:46;100730.38;;;19.67;71.36
25238;BME280;13185;50.872;5.306;2023-04-28T13:19:12;100727.47;;;19.60;72.55
25238;BME280;13185;50.872;5.306;2023-04-28T13:21:41;100729.47;;;19.58;72.32
25238;BME280;13185;50.872;5.306;2023-04-28T13:24:07;100744.13;;;19.39;73.93
25238;BME280;13185;50.872;5.306;2023-04-28T13:26:33;100752.84;;;19.25;74.62
25238;BME280;13185;50.872;5.306;2023-04-28T13:28:59;100741.91;;;19.17;75.01
25238;BME280;13185;50.872;5.306;2023-04-28T13:31:25;100749.06;;;19.18;74.86